Time;durP1;ratioP1;P1;durP2;ratioP2;P2;SDS_P1;SDS_P2;PMS_P1;PMS_P2;Temp;Humidity;BMP_temperature;BMP_pressure;BME280_temperature;BME280_humidity;BME280_pressure;Samples;Min_cycle;Max_cycle;Signal;HPM_P1;HPM_P2
2021/07/11 00:02:07;;;;;;;9.85;8.85;;;18.80;96.80;;;;;;4858833;29;20046;-84
2021/07/11 00:04:33;;;;;;;11.23;9.38;;;18.80;96.80;;;;;;4870898;29;20191;-84
2021/07/11 00:06:58;;;;;;;13.00;9.98;;;18.70;96.80;;;;;;4852993;29;20425;-84
2021/07/11 00:09:24;;;;;;;12.07;9.77;;;18.70;96.90;;;;;;4852738;29;20049;-84
2021/07/11 00:11:49;;;;;;;11.15;9.75;;;18.70;97.00;;;;;;4853716;29;20060;-84
2021/07/11 00:14:15;;;;;;;11.18;9.45;;;18.60;97.00;;;;;;4854545;29;20049;-85
2021/07/11 00:16:40;;;;;;;11.45;9.70;;;18.60;97.00;;;;;;4855995;29;20045;-85
2021/07/11 00:19:06;;;;;;;11.23;9.30;;;18.60;97.00;;;;;;4864053;29;20287;-84
2021/07/11 00:21:31;;;;;;;10.77;9.43;;;18.60;97.10;;;;;;4858251;29;20118;-84
2021/07/11 00:23:57;;;;;;;12.90;10.18;;;18.60;97.10;;;;;;4871881;29;20033;-84
2021/07/11 00:26:22;;;;;;;13.48;9.63;;;18.60;97.20;;;;;;4864163;29;20290;-84
2021/07/11 00:28:48;;;;;;;13.00;9.23;;;18.60;97.20;;;;;;4863525;29;20038;-85
2021/07/11 00:31:13;;;;;;;13.35;10.52;;;18.60;97.30;;;;;;4865502;29;20583;-85
2021/07/11 00:33:39;;;;;;;9.77;8.73;;;18.60;97.30;;;;;;4864780;29;20049;-84
2021/07/11 00:36:05;;;;;;;13.48;9.52;;;18.60;97.30;;;;;;4864755;29;20076;-84
2021/07/11 00:38:30;;;;;;;12.75;9.90;;;18.60;97.30;;;;;;4862094;29;20045;-85
2021/07/11 00:40:57;;;;;;;10.55;9.45;;;18.50;97.30;;;;;;4855758;29;20122;-84
2021/07/11 00:43:22;;;;;;;11.35;9.35;;;18.60;97.30;;;;;;4867533;29;20419;-84
2021/07/11 00:45:48;;;;;;;13.82;9.32;;;18.50;97.30;;;;;;4863634;29;20078;-85
2021/07/11 00:48:17;;;;;;;11.93;9.07;;;18.50;97.30;;;;;;4861397;29;20590;-85
2021/07/11 00:50:43;;;;;;;12.07;9.30;;;18.50;97.30;;;;;;4858697;29;20328;-84
2021/07/11 00:53:09;;;;;;;11.43;9.65;;;18.50;97.60;;;;;;4869329;29;20049;-86
2021/07/11 00:55:36;;;;;;;10.20;8.60;;;18.50;97.40;;;;;;4867831;29;20049;-85
2021/07/11 00:58:02;;;;;;;11.15;9.43;;;18.50;97.40;;;;;;4868053;29;20088;-85
2021/07/11 01:00:27;;;;;;;14.43;9.40;;;18.50;97.40;;;;;;4855139;29;20065;-85
2021/07/11 01:03:11;;;;;;;12.60;9.45;;;18.50;97.50;;;;;;4854047;29;20045;-85
2021/07/11 01:05:37;;;;;;;12.70;9.25;;;18.50;97.50;;;;;;4858603;29;20062;-85
2021/07/11 01:08:26;;;;;;;12.23;9.10;;;18.50;97.40;;;;;;4872005;29;20091;-85
2021/07/11 01:11:00;;;;;;;10.45;9.35;;;18.50;97.40;;;;;;4857026;29;20038;-85
2021/07/11 01:13:28;;;;;;;10.85;9.23;;;18.40;97.50;;;;;;4861016;29;20053;-85
2021/07/11 01:15:56;;;;;;;10.02;9.00;;;18.40;97.50;;;;;;4863356;29;20109;-85
2021/07/11 01:18:23;;;;;;;12.57;9.88;;;18.30;97.40;;;;;;4862305;29;20487;-84
2021/07/11 01:20:51;;;;;;;12.35;9.27;;;18.30;97.40;;;;;;4856823;29;20033;-84
2021/07/11 01:23:47;;;;;;;13.32;10.30;;;18.30;97.50;;;;;;4871489;29;20118;-84
2021/07/11 01:26:14;;;;;;;10.30;9.00;;;18.30;97.50;;;;;;4853817;29;20042;-84
2021/07/11 01:28:41;;;;;;;10.77;8.70;;;18.20;97.50;;;;;;4859531;29;20041;-84
2021/07/11 01:31:08;;;;;;;12.40;9.75;;;18.10;97.50;;;;;;4854092;29;20056;-85
2021/07/11 01:33:36;;;;;;;12.15;9.98;;;18.10;97.60;;;;;;4856977;29;20049;-84
2021/07/11 01:36:03;;;;;;;11.90;9.55;;;18.10;97.60;;;;;;4853711;29;20129;-85
2021/07/11 01:38:29;;;;;;;12.70;9.73;;;18.00;97.70;;;;;;4859870;29;20129;-85
2021/07/11 01:40:55;;;;;;;10.73;9.60;;;18.00;97.70;;;;;;4856176;29;20069;-85
2021/07/11 01:43:22;;;;;;;13.88;10.82;;;17.90;97.80;;;;;;4854197;29;20037;-85
2021/07/11 01:45:53;;;;;;;12.65;10.70;;;17.90;97.90;;;;;;4855489;29;20124;-85
2021/07/11 01:48:19;;;;;;;13.85;10.38;;;17.90;98.00;;;;;;4856867;29;20038;-85
2021/07/11 01:50:50;;;;;;;15.55;10.45;;;17.80;98.00;;;;;;4853909;29;20038;-84
2021/07/11 01:53:17;;;;;;;12.20;10.48;;;17.80;98.10;;;;;;4853301;29;20066;-85
2021/07/11 01:55:43;;;;;;;13.20;10.73;;;17.80;98.20;;;;;;4855544;29;20046;-84
2021/07/11 01:58:08;;;;;;;11.82;10.60;;;17.80;98.20;;;;;;4855858;29;20116;-85
2021/07/11 02:00:34;;;;;;;12.65;10.82;;;17.70;98.20;;;;;;4858060;29;20050;-85
2021/07/11 02:02:59;;;;;;;12.05;10.23;;;17.70;98.40;;;;;;4864210;29;20046;-85
2021/07/11 02:05:25;;;;;;;12.75;11.40;;;17.70;98.40;;;;;;4862148;29;20110;-85
2021/07/11 02:07:50;;;;;;;11.90;9.85;;;17.70;98.50;;;;;;4854729;29;20060;-85
2021/07/11 02:10:17;;;;;;;13.13;10.93;;;17.60;98.50;;;;;;4860732;29;20128;-85
2021/07/11 02:12:57;;;;;;;12.18;10.13;;;17.60;98.50;;;;;;4859243;29;20057;-84
2021/07/11 02:15:29;;;;;;;12.13;10.18;;;17.60;98.50;;;;;;4860975;29;20051;-85
2021/07/11 02:17:56;;;;;;;14.73;11.90;;;17.60;98.50;;;;;;4853542;29;20286;-85
2021/07/11 02:20:24;;;;;;;12.25;10.95;;;17.60;98.50;;;;;;4862136;29;20052;-85
2021/07/11 02:22:52;;;;;;;14.25;10.77;;;17.50;98.50;;;;;;4855149;29;20053;-85
2021/07/11 02:25:21;;;;;;;16.15;11.40;;;17.50;98.60;;;;;;4857145;29;20156;-85
2021/07/11 02:27:48;;;;;;;13.73;10.15;;;17.40;98.60;;;;;;4855680;29;20071;-84
2021/07/11 02:30:17;;;;;;;16.80;11.18;;;17.40;98.70;;;;;;4856167;29;20340;-85
2021/07/11 02:32:47;;;;;;;15.90;10.43;;;17.40;98.70;;;;;;4855545;29;20049;-85
2021/07/11 02:35:13;;;;;;;11.93;10.20;;;17.40;98.80;;;;;;4861895;29;20072;-85
2021/07/11 02:37:46;;;;;;;13.10;10.95;;;17.40;98.70;;;;;;4862349;29;20076;-85
2021/07/11 02:40:12;;;;;;;18.58;12.75;;;17.40;98.70;;;;;;4870763;29;20470;-84
2021/07/11 02:42:38;;;;;;;17.85;11.07;;;17.30;98.70;;;;;;4856672;29;20083;-85
2021/07/11 02:45:07;;;;;;;14.73;12.55;;;17.30;98.70;;;;;;4857673;29;20041;-84
2021/07/11 02:47:35;;;;;;;14.95;12.52;;;17.30;98.80;;;;;;4854732;29;20049;-85
2021/07/11 02:50:04;;;;;;;12.27;10.98;;;17.20;98.80;;;;;;4854212;29;20038;-85
2021/07/11 02:52:31;;;;;;;16.83;13.73;;;17.20;98.90;;;;;;4858384;29;20084;-85
2021/07/11 02:55:10;;;;;;;15.80;13.75;;;17.20;98.90;;;;;;4854696;29;20045;-84
2021/07/11 02:57:37;;;;;;;15.88;12.57;;;17.10;98.90;;;;;;4853524;29;20060;-84
2021/07/11 03:00:06;;;;;;;18.10;12.85;;;17.10;98.90;;;;;;4853470;29;20124;-85
2021/07/11 03:02:33;;;;;;;14.18;12.68;;;17.10;98.90;;;;;;4856601;29;20363;-84
2021/07/11 03:04:59;;;;;;;17.17;11.77;;;17.10;98.90;;;;;;4854618;29;20030;-84
2021/07/11 03:07:25;;;;;;;15.68;12.43;;;17.10;98.90;;;;;;4860296;29;20038;-84
2021/07/11 03:09:50;;;;;;;14.80;12.13;;;17.00;98.90;;;;;;4858026;29;20282;-84
2021/07/11 03:12:17;;;;;;;12.60;10.70;;;17.00;98.90;;;;;;4858527;29;20056;-85
2021/07/11 03:14:47;;;;;;;13.65;10.77;;;17.00;98.90;;;;;;4859023;29;20046;-85
2021/07/11 03:17:15;;;;;;;13.27;10.80;;;17.00;98.90;;;;;;4855475;29;20129;-84
2021/07/11 03:19:42;;;;;;;15.43;11.15;;;17.00;98.90;;;;;;4856130;29;20126;-84
2021/07/11 03:22:08;;;;;;;13.52;10.73;;;16.90;98.90;;;;;;4856682;29;20045;-85
2021/07/11 03:24:35;;;;;;;13.02;10.50;;;16.90;98.90;;;;;;4856943;29;20037;-85
2021/07/11 03:27:02;;;;;;;14.13;11.18;;;16.90;99.20;;;;;;4859875;29;20053;-84
2021/07/11 03:29:52;;;;;;;12.70;11.38;;;16.90;99.00;;;;;;4857550;29;20048;-86
2021/07/11 03:32:20;;;;;;;13.90;11.07;;;16.90;99.00;;;;;;4857734;29;20055;-83
2021/07/11 03:34:48;;;;;;;11.48;10.10;;;16.90;99.10;;;;;;4860362;29;20049;-84
2021/07/11 03:37:14;;;;;;;12.88;9.88;;;16.90;99.40;;;;;;4856884;29;20037;-84
2021/07/11 03:39:44;;;;;;;15.00;11.98;;;16.90;99.20;;;;;;4857343;29;20049;-84
2021/07/11 03:42:11;;;;;;;13.68;10.27;;;16.90;99.20;;;;;;4856263;29;20140;-84
2021/07/11 03:44:40;;;;;;;12.10;10.45;;;16.90;99.20;;;;;;4869332;29;20034;-84
2021/07/11 03:47:10;;;;;;;12.30;10.18;;;17.00;99.30;;;;;;4855560;29;20109;-84
2021/07/11 03:49:38;;;;;;;13.00;10.35;;;17.00;99.20;;;;;;4853685;29;20129;-84
2021/07/11 03:52:07;;;;;;;14.45;11.32;;;17.00;99.20;;;;;;4859787;29;20472;-84
2021/07/11 03:54:35;;;;;;;11.25;10.10;;;17.00;99.20;;;;;;4854274;29;20481;-84
2021/07/11 03:57:02;;;;;;;11.52;9.38;;;17.10;99.20;;;;;;4853023;29;20085;-84
2021/07/11 03:59:29;;;;;;;12.38;10.57;;;17.10;99.10;;;;;;4857726;29;20449;-84
2021/07/11 04:01:54;;;;;;;10.77;8.95;;;17.10;99.10;;;;;;4852148;29;20064;-85
2021/07/11 04:04:22;;;;;;;10.93;9.50;;;17.10;99.10;;;;;;4853952;29;20042;-85
2021/07/11 04:06:49;;;;;;;13.05;9.65;;;17.20;99.10;;;;;;4853397;29;20466;-84
2021/07/11 04:09:19;;;;;;;13.45;8.80;;;17.20;99.00;;;;;;4860701;29;20350;-85
2021/07/11 04:11:46;;;;;;;10.27;8.80;;;17.20;99.00;;;;;;4855435;29;20113;-84
2021/07/11 04:14:17;;;;;;;10.35;8.80;;;17.30;99.00;;;;;;4855015;29;20045;-84
2021/07/11 04:16:49;;;;;;;10.38;9.23;;;17.30;98.90;;;;;;4851078;29;20049;-84
2021/07/11 04:19:27;;;;;;;10.90;8.93;;;17.30;98.90;;;;;;4860613;29;20152;-84
2021/07/11 04:21:54;;;;;;;10.60;8.70;;;17.40;98.80;;;;;;4851064;29;20049;-85
2021/07/11 04:24:21;;;;;;;10.70;9.40;;;17.40;98.80;;;;;;4852575;29;20041;-84
2021/07/11 04:26:48;;;;;;;9.98;7.90;;;17.40;98.80;;;;;;4859470;29;20295;-85
2021/07/11 04:29:16;;;;;;;10.38;8.95;;;17.50;98.80;;;;;;4855405;29;20151;-85
2021/07/11 04:31:43;;;;;;;10.25;8.10;;;17.50;98.80;;;;;;4853842;29;20098;-85
2021/07/11 04:34:27;;;;;;;8.90;8.00;;;17.50;98.70;;;;;;4853396;29;20045;-85
2021/07/11 04:36:55;;;;;;;9.50;7.70;;;17.60;98.70;;;;;;4870734;29;20069;-85
2021/07/11 04:39:21;;;;;;;9.48;7.68;;;17.60;98.70;;;;;;4862005;29;20397;-85
2021/07/11 04:41:47;;;;;;;9.88;7.65;;;17.60;98.70;;;;;;4856699;29;20060;-85
2021/07/11 04:44:13;;;;;;;10.88;7.93;;;17.70;98.70;;;;;;4854165;29;20057;-85
2021/07/11 04:46:38;;;;;;;9.80;8.32;;;17.70;98.70;;;;;;4857312;29;20129;-85
2021/07/11 04:49:05;;;;;;;7.82;6.93;;;17.80;98.60;;;;;;4852019;29;20038;-85
2021/07/11 04:51:32;;;;;;;8.35;7.55;;;17.90;98.50;;;;;;4856416;29;20533;-85
2021/07/11 04:53:57;;;;;;;7.70;6.90;;;17.90;98.40;;;;;;4858229;29;20562;-85
2021/07/11 04:56:23;;;;;;;7.57;6.72;;;17.90;98.40;;;;;;4852285;29;20050;-85
2021/07/11 04:58:49;;;;;;;8.63;6.80;;;18.00;98.20;;;;;;4872690;29;20510;-85
2021/07/11 05:01:14;;;;;;;7.70;6.78;;;18.00;98.20;;;;;;4851026;29;20049;-85
2021/07/11 05:03:40;;;;;;;7.88;6.72;;;18.10;98.10;;;;;;4860699;29;20038;-84
2021/07/11 05:06:05;;;;;;;11.10;6.60;;;18.20;97.90;;;;;;4848278;29;20417;-84
2021/07/11 05:08:31;;;;;;;12.02;6.95;;;18.30;97.70;;;;;;4846773;29;20042;-85
2021/07/11 05:10:56;;;;;;;8.05;6.78;;;18.30;97.60;;;;;;4869877;29;20045;-84
2021/07/11 05:13:22;;;;;;;7.28;6.45;;;18.40;97.70;;;;;;4853508;29;20432;-84
2021/07/11 05:15:47;;;;;;;8.57;6.55;;;18.50;97.70;;;;;;4849930;29;20042;-84
2021/07/11 05:18:13;;;;;;;8.75;7.47;;;18.50;97.40;;;;;;4854595;29;20171;-84
2021/07/11 05:20:38;;;;;;;7.50;6.40;;;18.60;97.00;;;;;;4863966;29;20072;-85
2021/07/11 05:23:04;;;;;;;7.28;6.57;;;18.60;96.90;;;;;;4878776;29;20055;-84
2021/07/11 05:25:32;;;;;;;9.68;6.68;;;18.70;97.10;;;;;;4863824;29;20049;-84
2021/07/11 05:27:59;;;;;;;9.32;6.97;;;18.80;96.90;;;;;;4862872;29;20061;-84
2021/07/11 05:30:24;;;;;;;8.73;6.53;;;18.80;96.60;;;;;;4863213;29;20128;-84
2021/07/11 05:32:50;;;;;;;9.50;6.65;;;18.90;96.70;;;;;;4862587;29;20377;-84
2021/07/11 05:35:15;;;;;;;7.85;6.78;;;18.90;96.70;;;;;;4863608;29;20058;-85
2021/07/11 05:37:41;;;;;;;8.18;6.70;;;19.00;96.70;;;;;;4863383;29;20494;-86
2021/07/11 05:40:07;;;;;;;7.22;6.53;;;19.00;96.40;;;;;;4856911;29;20045;-84
2021/07/11 05:42:33;;;;;;;7.90;6.85;;;19.10;96.20;;;;;;4859991;29;20129;-85
2021/07/11 05:44:58;;;;;;;12.43;6.78;;;19.10;96.40;;;;;;4860049;29;20044;-84
2021/07/11 05:47:24;;;;;;;7.28;6.22;;;19.20;96.30;;;;;;4854821;29;20041;-84
2021/07/11 05:49:49;;;;;;;9.20;6.20;;;19.30;96.50;;;;;;4854622;29;20045;-84
2021/07/11 05:52:15;;;;;;;7.95;6.93;;;19.30;96.40;;;;;;4878198;29;20054;-84
2021/07/11 05:54:40;;;;;;;7.50;6.65;;;19.40;96.30;;;;;;4862221;29;20174;-84
2021/07/11 05:57:06;;;;;;;6.80;6.13;;;19.50;96.10;;;;;;4855879;29;20162;-85
2021/07/11 05:59:31;;;;;;;6.25;5.65;;;19.60;96.30;;;;;;4874575;29;20445;-85
2021/07/11 06:01:56;;;;;;;7.60;6.15;;;19.60;96.40;;;;;;4859090;29;20132;-85
2021/07/11 06:04:22;;;;;;;10.70;5.35;;;19.80;95.90;;;;;;4871289;29;20045;-85
2021/07/11 06:06:47;;;;;;;6.82;6.13;;;19.80;95.50;;;;;;4869826;29;20052;-85
2021/07/11 06:09:13;;;;;;;8.00;6.00;;;20.00;95.30;;;;;;4864365;29;20107;-84
2021/07/11 06:11:39;;;;;;;8.45;5.35;;;20.00;95.60;;;;;;4858586;29;20057;-84
2021/07/11 06:14:05;;;;;;;8.60;5.40;;;20.10;95.70;;;;;;4853455;29;20053;-84
2021/07/11 06:16:30;;;;;;;7.80;5.05;;;20.20;94.80;;;;;;4855110;29;20317;-86
2021/07/11 06:18:56;;;;;;;5.47;4.72;;;20.30;95.10;;;;;;4853265;29;20110;-84
2021/07/11 06:21:21;;;;;;;5.40;4.88;;;20.40;94.90;;;;;;4870210;29;20404;-85
2021/07/11 06:23:47;;;;;;;5.43;4.45;;;20.50;94.50;;;;;;4877771;29;20118;-85
2021/07/11 06:26:13;;;;;;;6.10;5.00;;;20.60;94.70;;;;;;4853946;29;20047;-86
2021/07/11 06:28:39;;;;;;;5.10;4.43;;;20.70;94.50;;;;;;4855813;29;20033;-85
2021/07/11 06:31:04;;;;;;;5.20;4.70;;;20.70;94.20;;;;;;4863053;29;20077;-86
2021/07/11 06:33:30;;;;;;;5.50;4.85;;;20.80;94.40;;;;;;4851446;29;20050;-85
2021/07/11 06:35:55;;;;;;;5.20;4.60;;;20.90;94.40;;;;;;4858346;29;20045;-86
2021/07/11 06:38:20;;;;;;;5.28;4.78;;;20.90;94.40;;;;;;4874494;29;20080;-86
2021/07/11 06:40:46;;;;;;;5.97;5.05;;;21.00;94.10;;;;;;4863371;29;20056;-86
2021/07/11 06:43:11;;;;;;;5.28;4.57;;;21.00;94.50;;;;;;4856268;29;20086;-86
2021/07/11 06:45:37;;;;;;;4.68;4.25;;;21.10;94.50;;;;;;4853018;29;20052;-86
2021/07/11 06:48:03;;;;;;;6.25;4.10;;;21.20;94.70;;;;;;4856364;29;20409;-86
2021/07/11 06:50:28;;;;;;;6.68;4.53;;;21.30;94.30;;;;;;4859190;29;20110;-86
2021/07/11 06:52:54;;;;;;;5.88;3.85;;;21.40;94.60;;;;;;4853652;29;20128;-86
2021/07/11 06:55:19;;;;;;;4.72;4.28;;;21.60;93.20;;;;;;4860656;29;20045;-86
2021/07/11 06:57:45;;;;;;;3.85;3.35;;;21.70;93.50;;;;;;4853291;29;20045;-86
2021/07/11 07:00:13;;;;;;;4.97;3.72;;;21.80;93.10;;;;;;4863691;29;20041;-86
2021/07/11 07:02:39;;;;;;;4.05;3.65;;;21.90;93.40;;;;;;4874389;29;20041;-83
2021/07/11 07:05:07;;;;;;;4.80;3.30;;;21.90;93.40;;;;;;4860982;29;20417;-83
2021/07/11 07:07:32;;;;;;;6.32;3.95;;;21.80;93.40;;;;;;4856056;29;20465;-86
2021/07/11 07:09:58;;;;;;;3.83;3.40;;;21.90;93.20;;;;;;4850990;29;20062;-86
2021/07/11 07:12:24;;;;;;;4.43;4.03;;;21.90;93.20;;;;;;4872716;29;20054;-86
2021/07/11 07:14:49;;;;;;;5.45;3.60;;;21.90;92.80;;;;;;4860477;29;20056;-86
2021/07/11 07:17:15;;;;;;;4.22;3.35;;;21.90;93.10;;;;;;4850347;29;20053;-86
2021/07/11 07:19:40;;;;;;;3.97;3.58;;;21.90;92.90;;;;;;4853360;29;20322;-86
2021/07/11 07:22:06;;;;;;;5.32;4.43;;;21.90;93.20;;;;;;4872696;29;20045;-85
2021/07/11 07:24:31;;;;;;;4.25;3.40;;;22.00;93.30;;;;;;4861885;29;20033;-86
2021/07/11 07:26:57;;;;;;;4.30;3.47;;;22.00;93.60;;;;;;4852064;29;20480;-86
2021/07/11 07:29:22;;;;;;;4.57;4.05;;;22.10;93.30;;;;;;4854373;29;20037;-86
2021/07/11 07:31:48;;;;;;;4.72;3.42;;;22.20;93.70;;;;;;4856075;29;20061;-86
2021/07/11 07:34:14;;;;;;;5.35;3.60;;;22.40;92.80;;;;;;4855525;29;20417;-86
2021/07/11 07:36:40;;;;;;;4.65;3.20;;;22.50;92.90;;;;;;4853754;29;20046;-83
2021/07/11 07:39:06;;;;;;;6.78;3.08;;;22.50;93.20;;;;;;4860310;29;20064;-83
2021/07/11 07:41:32;;;;;;;4.72;3.75;;;22.60;92.70;;;;;;4872136;29;20041;-83
2021/07/11 07:43:57;;;;;;;3.50;3.20;;;22.70;92.20;;;;;;4869240;29;20045;-83
2021/07/11 07:46:23;;;;;;;3.83;2.97;;;22.90;92.20;;;;;;4857115;29;20049;-85
2021/07/11 07:48:49;;;;;;;3.38;2.63;;;23.00;91.90;;;;;;4865100;29;20041;-83
2021/07/11 07:51:15;;;;;;;3.97;3.28;;;23.10;91.20;;;;;;4850603;29;20053;-83
2021/07/11 07:53:41;;;;;;;3.45;2.88;;;23.30;91.90;;;;;;4865755;29;20046;-84
2021/07/11 07:56:06;;;;;;;2.92;2.38;;;23.40;91.40;;;;;;4854889;29;20410;-84
2021/07/11 07:58:32;;;;;;;6.53;2.90;;;23.50;89.10;;;;;;4861091;29;20051;-84
2021/07/11 08:00:57;;;;;;;4.18;3.00;;;23.70;90.40;;;;;;4854285;29;20426;-84
2021/07/11 08:03:22;;;;;;;2.65;2.40;;;23.80;90.30;;;;;;4854419;29;20057;-84
2021/07/11 08:05:48;;;;;;;2.85;2.35;;;23.80;90.10;;;;;;4855761;29;20169;-84
2021/07/11 08:08:14;;;;;;;2.53;2.33;;;23.90;90.00;;;;;;4857928;29;20049;-84
2021/07/11 08:10:39;;;;;;;3.15;2.60;;;23.90;89.50;;;;;;4856318;29;20168;-84
2021/07/11 08:13:05;;;;;;;3.45;2.58;;;23.90;88.60;;;;;;4867503;29;20056;-84
2021/07/11 08:15:32;;;;;;;4.05;2.20;;;24.00;88.80;;;;;;4873033;29;20045;-84
2021/07/11 08:17:58;;;;;;;5.90;2.45;;;24.00;88.80;;;;;;4856601;29;20033;-85
2021/07/11 08:20:24;;;;;;;4.68;2.53;;;24.10;88.40;;;;;;4869681;29;20046;-84
2021/07/11 08:22:50;;;;;;;3.30;2.60;;;24.10;89.70;;;;;;4876174;29;20057;-84
2021/07/11 08:25:16;;;;;;;3.80;2.97;;;24.30;89.80;;;;;;4863051;29;20145;-84
2021/07/11 08:27:43;;;;;;;2.92;2.33;;;24.40;90.30;;;;;;4862710;29;20045;-84
2021/07/11 08:30:10;;;;;;;6.50;2.30;;;24.60;88.60;;;;;;4877993;29;20283;-84
2021/07/11 08:32:36;;;;;;;4.25;2.35;;;24.80;87.30;;;;;;4877826;29;20050;-84
2021/07/11 08:35:02;;;;;;;2.88;2.55;;;24.90;88.10;;;;;;4863686;29;20133;-84
2021/07/11 08:37:28;;;;;;;2.72;1.80;;;25.10;87.60;;;;;;4863163;29;20124;-84
2021/07/11 08:39:54;;;;;;;4.32;2.50;;;25.30;87.20;;;;;;4878406;29;20413;-84
2021/07/11 08:42:21;;;;;;;7.00;2.72;;;25.40;85.50;;;;;;4863193;29;20060;-84
2021/07/11 08:44:46;;;;;;;3.25;2.35;;;25.60;87.20;;;;;;4878427;29;20051;-84
2021/07/11 08:47:12;;;;;;;3.53;2.38;;;25.60;84.60;;;;;;4881547;29;20132;-84
2021/07/11 08:49:38;;;;;;;2.50;2.05;;;25.70;83.80;;;;;;4866789;29;20041;-84
2021/07/11 08:52:04;;;;;;;2.75;2.10;;;25.70;85.90;;;;;;4881669;29;20128;-84
2021/07/11 08:54:30;;;;;;;2.70;2.03;;;25.60;85.60;;;;;;4866403;29;20053;-84
2021/07/11 08:57:00;;;;;;;3.50;2.40;;;25.60;86.50;;;;;;4866841;29;20041;-84
2021/07/11 08:59:29;;;;;;;3.25;2.35;;;25.60;86.90;;;;;;4880874;29;20478;-84
2021/07/11 09:01:56;;;;;;;2.83;2.25;;;25.60;85.70;;;;;;4866517;29;20045;-84
2021/07/11 09:04:22;;;;;;;2.72;2.40;;;25.70;86.30;;;;;;4866712;29;20048;-84
2021/07/11 09:06:49;;;;;;;4.85;2.22;;;25.80;86.80;;;;;;4866523;29;20038;-84
2021/07/11 09:09:27;;;;;;;3.00;2.55;;;25.90;88.40;;;;;;4866345;29;20046;-84
2021/07/11 09:12:08;;;;;;;2.92;2.45;;;26.00;88.00;;;;;;4866102;29;20062;-85
2021/07/11 09:14:39;;;;;;;2.45;2.00;;;26.10;85.00;;;;;;4866522;29;20120;-84
2021/07/11 09:17:06;;;;;;;2.97;2.22;;;26.20;82.20;;;;;;4865595;29;20045;-84
2021/07/11 09:19:38;;;;;;;4.40;2.70;;;26.30;83.20;;;;;;4881005;29;20053;-84
2021/07/11 09:22:13;;;;;;;4.43;2.45;;;26.30;82.90;;;;;;4880665;29;20060;-84
2021/07/11 09:25:05;;;;;;;2.70;2.28;;;26.30;82.60;;;;;;4881287;29;20313;-84
2021/07/11 09:27:33;;;;;;;2.15;1.88;;;26.40;83.40;;;;;;4863677;29;20052;-84
2021/07/11 09:30:00;;;;;;;3.00;2.33;;;26.50;83.80;;;;;;4866020;29;20026;-84
2021/07/11 09:32:32;;;;;;;3.17;1.90;;;26.60;83.10;;;;;;4865642;29;20056;-85
2021/07/11 09:35:08;;;;;;;5.32;2.15;;;26.70;81.90;;;;;;4881020;29;20045;-85
2021/07/11 09:37:39;;;;;;;3.83;1.80;;;26.80;80.40;;;;;;4865673;29;20124;-85
2021/07/11 09:40:06;;;;;;;2.97;1.33;;;26.80;82.00;;;;;;4866069;29;20049;-84
2021/07/11 09:42:33;;;;;;;2.35;2.13;;;26.90;82.10;;;;;;4880563;29;20135;-85
2021/07/11 09:45:00;;;;;;;1.98;1.60;;;26.90;82.50;;;;;;4880409;29;20079;-84
2021/07/11 09:47:29;;;;;;;2.15;1.92;;;27.00;80.80;;;;;;4865845;29;20306;-84
2021/07/11 09:50:06;;;;;;;2.22;2.00;;;27.10;79.50;;;;;;4880489;29;20113;-85
2021/07/11 09:52:32;;;;;;;4.55;1.65;;;27.10;79.00;;;;;;4865758;29;20124;-84
2021/07/11 09:55:08;;;;;;;2.13;1.73;;;27.20;79.80;;;;;;4865328;29;20046;-84
2021/07/11 09:57:36;;;;;;;1.48;1.35;;;27.20;77.70;;;;;;4864839;29;20049;-84
2021/07/11 10:00:15;;;;;;;2.03;1.63;;;27.20;78.70;;;;;;4879643;29;20045;-84
2021/07/11 10:02:41;;;;;;;2.30;2.10;;;27.30;81.00;;;;;;4865788;29;20455;-84
2021/07/11 10:05:08;;;;;;;2.00;1.70;;;27.40;82.20;;;;;;4879959;29;20045;-84
2021/07/11 10:07:35;;;;;;;2.65;1.75;;;27.40;80.40;;;;;;4879821;29;20037;-85
2021/07/11 10:10:04;;;;;;;2.05;1.85;;;27.50;76.90;;;;;;4865184;29;20040;-84
2021/07/11 10:12:30;;;;;;;1.90;1.48;;;27.50;78.00;;;;;;4880198;29;20045;-85
2021/07/11 10:14:55;;;;;;;3.10;1.40;;;27.60;75.60;;;;;;4880300;29;20410;-85
2021/07/11 10:17:21;;;;;;;3.47;1.80;;;27.60;76.40;;;;;;4864864;29;20053;-85
2021/07/11 10:19:49;;;;;;;1.60;1.30;;;27.70;78.20;;;;;;4880120;29;20037;-84
2021/07/11 10:22:16;;;;;;;2.22;1.55;;;27.80;76.00;;;;;;4879392;29;20041;-85
2021/07/11 10:24:45;;;;;;;1.60;1.50;;;27.80;75.90;;;;;;4879890;29;20133;-85
2021/07/11 10:27:20;;;;;;;2.72;1.63;;;27.80;78.70;;;;;;4864494;29;20065;-85
2021/07/11 10:29:51;;;;;;;2.17;1.65;;;27.80;76.30;;;;;;4865074;29;20150;-84
2021/07/11 10:32:32;;;;;;;2.77;1.80;;;27.80;76.20;;;;;;4864514;29;20038;-84
2021/07/11 10:35:16;;;;;;;2.05;1.60;;;27.90;74.10;;;;;;4879784;29;20055;-84
2021/07/11 10:37:48;;;;;;;1.50;1.38;;;27.80;73.90;;;;;;4879314;29;20042;-84
2021/07/11 10:40:29;;;;;;;2.92;1.50;;;27.80;75.40;;;;;;4864874;29;20429;-85
2021/07/11 10:42:54;;;;;;;3.88;1.58;;;27.90;73.60;;;;;;4879579;29;20229;-84
2021/07/11 10:45:21;;;;;;;2.35;1.85;;;27.90;74.30;;;;;;4879703;29;20145;-85
2021/07/11 10:47:47;;;;;;;2.53;1.88;;;27.90;75.60;;;;;;4879418;29;20186;-84
2021/07/11 10:50:28;;;;;;;1.92;1.73;;;28.00;78.90;;;;;;4879113;29;20364;-85
2021/07/11 10:52:58;;;;;;;3.35;1.75;;;28.20;79.60;;;;;;4864649;29;20056;-84
2021/07/11 10:55:24;;;;;;;1.90;1.50;;;28.40;76.80;;;;;;4864393;29;20045;-85
2021/07/11 10:57:50;;;;;;;2.95;1.45;;;28.60;77.00;;;;;;4879160;29;20117;-83
2021/07/11 11:00:18;;;;;;;2.22;1.45;;;28.80;75.10;;;;;;4878642;29;20041;-84
2021/07/11 11:02:47;;;;;;;2.00;1.50;;;29.00;76.00;;;;;;4864465;29;20041;-83
2021/07/11 11:05:16;;;;;;;2.70;1.25;;;29.20;72.30;;;;;;4863756;29;20045;-83
2021/07/11 11:08:08;;;;;;;2.45;1.58;;;29.50;71.30;;;;;;4864048;29;20052;-84
2021/07/11 11:10:36;;;;;;;2.65;1.40;;;29.70;73.10;;;;;;4864113;29;20120;-84
2021/07/11 11:13:06;;;;;;;3.70;1.48;;;29.90;68.80;;;;;;4878963;29;20052;-85
2021/07/11 11:15:52;;;;;;;2.85;1.65;;;30.00;71.60;;;;;;4864348;29;20314;-84
2021/07/11 11:18:39;;;;;;;3.20;1.58;;;30.10;72.00;;;;;;4878758;29;20053;-84
2021/07/11 11:21:08;;;;;;;3.72;1.58;;;30.30;70.00;;;;;;4863847;29;20069;-84
2021/07/11 11:23:39;;;;;;;2.78;1.98;;;30.30;69.40;;;;;;4879060;29;20049;-85
2021/07/11 11:26:07;;;;;;;2.40;1.83;;;30.10;70.10;;;;;;4863983;29;20042;-84
2021/07/11 11:28:39;;;;;;;2.03;1.85;;;30.00;71.20;;;;;;4863666;29;20041;-84
2021/07/11 11:31:14;;;;;;;3.50;2.58;;;29.90;72.40;;;;;;4864133;29;20029;-84
2021/07/11 11:34:05;;;;;;;3.72;2.42;;;29.70;69.90;;;;;;4878424;29;20081;-84
2021/07/11 11:36:47;;;;;;;2.38;2.10;;;29.50;73.10;;;;;;4878591;29;20041;-84
2021/07/11 11:39:31;;;;;;;3.88;2.13;;;29.30;73.30;;;;;;4863668;29;20041;-84
2021/07/11 11:41:57;;;;;;;2.22;2.00;;;28.90;73.50;;;;;;4863919;29;20056;-84
2021/07/11 11:44:25;;;;;;;2.13;1.92;;;28.80;73.10;;;;;;4863547;29;20048;-84
2021/07/11 11:46:52;;;;;;;2.55;2.17;;;28.70;76.00;;;;;;4878510;29;20044;-84
2021/07/11 11:49:21;;;;;;;1.85;1.58;;;28.70;76.60;;;;;;4878282;29;20338;-84
2021/07/11 11:51:48;;;;;;;3.53;1.90;;;28.80;74.30;;;;;;4878845;29;20081;-84
2021/07/11 11:54:33;;;;;;;3.35;2.88;;;28.80;73.90;;;;;;4878186;29;20045;-84
2021/07/11 11:57:00;;;;;;;2.45;2.08;;;29.00;75.20;;;;;;4878448;29;20049;-84
2021/07/11 11:59:27;;;;;;;2.67;2.15;;;29.20;74.80;;;;;;4878467;29;20350;-85
2021/07/11 12:02:08;;;;;;;2.38;1.80;;;29.30;73.00;;;;;;4878221;29;20398;-84
2021/07/11 12:04:34;;;;;;;1.90;1.65;;;29.50;72.90;;;;;;4878481;29;20053;-85
2021/07/11 12:07:01;;;;;;;5.38;1.85;;;29.40;71.30;;;;;;4878004;29;20399;-85
2021/07/11 12:09:28;;;;;;;3.40;2.25;;;29.50;72.20;;;;;;4862701;29;20479;-85
2021/07/11 12:12:04;;;;;;;2.20;2.00;;;29.50;73.30;;;;;;4878283;29;20390;-86
2021/07/11 12:14:33;;;;;;;1.95;1.75;;;29.60;70.50;;;;;;4878599;29;20098;-85
2021/07/11 12:17:01;;;;;;;2.20;2.00;;;29.70;73.10;;;;;;4863258;29;20041;-85
2021/07/11 12:19:27;;;;;;;2.30;2.10;;;29.80;72.40;;;;;;4878210;29;20416;-84
2021/07/11 12:21:54;;;;;;;6.38;4.93;;;29.90;72.00;;;;;;4881636;29;20220;-85
2021/07/11 12:24:25;;;;;;;3.13;1.90;;;30.10;71.00;;;;;;4867188;29;20313;-83
2021/07/11 12:26:55;;;;;;;7.22;6.03;;;30.10;70.50;;;;;;4881934;29;20045;-84
2021/07/11 12:29:34;;;;;;;28.73;19.73;;;30.10;70.90;;;;;;4881446;29;20409;-84
2021/07/11 12:32:04;;;;;;;8.52;7.65;;;29.90;71.00;;;;;;4867243;29;20048;-84
2021/07/11 12:34:30;;;;;;;14.50;9.80;;;29.70;70.40;;;;;;4866814;29;20141;-84
2021/07/11 12:37:03;;;;;;;7.03;5.53;;;29.60;72.50;;;;;;4867133;29;20052;-84
2021/07/11 12:39:28;;;;;;;4.20;3.78;;;29.40;71.70;;;;;;4882054;29;20105;-84
2021/07/11 12:41:55;;;;;;;20.73;15.60;;;29.20;72.10;;;;;;4867291;29;20057;-84
2021/07/11 12:44:41;;;;;;;3.88;2.50;;;29.10;73.50;;;;;;4867145;29;20051;-84
2021/07/11 12:47:10;;;;;;;5.35;4.75;;;29.10;71.90;;;;;;4867175;29;20038;-84